createdAt,value
2022-11-22T00:00:16.544Z,79.31
2022-11-22T00:01:16.506Z,79.94
2022-11-22T00:02:16.580Z,79.62
2022-11-22T00:03:16.514Z,77.20
2022-11-22T00:04:16.479Z,77.09
2022-11-22T00:05:16.458Z,76.02
2022-11-22T00:06:16.485Z,74.74
2022-11-22T00:07:16.487Z,74.63
2022-11-22T00:08:16.425Z,74.32
2022-11-22T00:09:16.444Z,74.32
2022-11-22T00:10:16.409Z,75.05
2022-11-22T00:11:16.427Z,74.01
2022-11-22T00:12:16.371Z,75.05
2022-11-22T00:13:16.354Z,76.29
2022-11-22T00:14:16.380Z,74.63
2022-11-22T00:15:16.348Z,75.57
2022-11-22T00:16:16.317Z,75.36
2022-11-22T00:17:16.383Z,73.91
2022-11-22T00:18:16.336Z,74.11
2022-11-22T00:19:16.298Z,75.05
2022-11-22T00:20:16.269Z,75.05
2022-11-22T00:21:16.250Z,75.46
2022-11-22T00:22:16.257Z,75.57
2022-11-22T00:23:16.220Z,76.54
2022-11-22T00:24:16.249Z,75.78
2022-11-22T00:25:16.200Z,75.15
2022-11-22T00:26:16.189Z,75.36
2022-11-22T00:27:16.171Z,74.84
2022-11-22T00:28:16.172Z,75.05
2022-11-22T00:29:16.160Z,74.63
2022-11-22T00:30:16.133Z,73.88
2022-11-22T00:31:16.127Z,73.15
2022-11-22T00:32:16.112Z,73.46
2022-11-22T00:33:16.109Z,74.29
2022-11-22T00:34:16.091Z,75.64
2022-11-22T00:35:16.069Z,73.25
2022-11-22T00:36:16.067Z,75.02
2022-11-22T00:37:16.033Z,77.12
2022-11-22T00:38:16.050Z,77.54
2022-11-22T00:39:16.010Z,76.81
2022-11-22T00:40:15.999Z,77.58
2022-11-22T00:41:15.991Z,78.09
2022-11-22T00:42:15.989Z,78.61
2022-11-22T00:43:15.989Z,78.82
2022-11-22T00:44:15.954Z,79.44
2022-11-22T00:45:15.940Z,79.80
2022-11-22T00:46:15.922Z,80.42
2022-11-22T00:47:15.931Z,80.63
2022-11-22T00:48:15.900Z,80.52
2022-11-22T00:49:15.913Z,80.00
2022-11-22T00:50:15.881Z,80.73
2022-11-22T00:51:15.849Z,81.18
2022-11-22T00:52:15.848Z,80.87
2022-11-22T00:53:15.825Z,80.46
2022-11-22T00:54:15.851Z,80.46
2022-11-22T00:55:15.864Z,80.46
2022-11-22T00:56:15.837Z,80.66
2022-11-22T00:57:15.784Z,80.35
2022-11-22T00:58:15.805Z,80.56
2022-11-22T00:59:15.747Z,80.77
2022-11-22T01:00:15.745Z,80.56
2022-11-22T01:01:15.786Z,80.77
2022-11-22T01:02:15.730Z,81.08
2022-11-22T01:03:15.722Z,81.18
2022-11-22T01:04:15.734Z,81.29
2022-11-22T01:05:15.669Z,81.60
2022-11-22T01:06:15.693Z,82.22
2022-11-22T01:07:15.760Z,82.12
2022-11-22T01:08:15.637Z,81.18
2022-11-22T01:09:15.614Z,81.49
2022-11-22T01:10:15.614Z,81.08
2022-11-22T01:11:15.591Z,81.08
2022-11-22T01:12:15.623Z,81.08
2022-11-22T01:13:15.583Z,81.49
2022-11-22T01:14:15.582Z,81.39
2022-11-22T01:15:15.543Z,81.49
2022-11-22T01:16:15.534Z,81.60
2022-11-22T01:17:15.546Z,81.18
2022-11-22T01:18:15.525Z,81.60
2022-11-22T01:19:15.482Z,81.81
2022-11-22T01:20:15.493Z,81.91
2022-11-22T01:21:15.457Z,82.01
2022-11-22T01:22:15.487Z,82.22
2022-11-22T01:23:15.435Z,82.43
2022-11-22T01:24:15.436Z,82.43
2022-11-22T01:25:15.411Z,82.78
2022-11-22T01:26:15.402Z,83.05
2022-11-22T01:27:15.377Z,83.30
2022-11-22T01:28:15.402Z,83.51
2022-11-22T01:29:15.360Z,83.72
2022-11-22T01:30:15.352Z,83.72
2022-11-22T01:31:15.326Z,84.03
2022-11-22T01:32:15.349Z,84.03
2022-11-22T01:33:15.461Z,84.13
2022-11-22T01:34:15.300Z,84.13
2022-11-22T01:35:15.279Z,84.23
2022-11-22T01:36:15.286Z,84.23
2022-11-22T01:37:15.246Z,84.23
2022-11-22T01:38:15.319Z,83.82
2022-11-22T01:39:15.246Z,83.40
2022-11-22T01:40:15.220Z,83.09
2022-11-22T01:41:15.226Z,82.89
2022-11-22T01:42:15.194Z,82.68
2022-11-22T01:43:15.177Z,82.89
2022-11-22T01:44:15.169Z,82.78
2022-11-22T01:45:15.153Z,83.47
2022-11-22T01:46:15.181Z,82.46
2022-11-22T01:47:15.121Z,82.01
2022-11-22T01:48:15.110Z,82.22
2022-11-22T01:49:15.114Z,82.43
2022-11-22T01:50:15.091Z,82.43
2022-11-22T01:51:15.096Z,82.12
2022-11-22T01:52:15.090Z,81.91
2022-11-22T01:53:15.156Z,82.64
2022-11-22T01:54:15.037Z,82.74
2022-11-22T01:55:15.014Z,82.95
2022-11-22T01:56:15.033Z,83.16
2022-11-22T01:57:15.008Z,83.26
2022-11-22T01:58:14.987Z,83.16
2022-11-22T01:59:14.957Z,83.16
2022-11-22T02:00:14.976Z,83.37
2022-11-22T02:01:14.962Z,83.58
2022-11-22T02:02:14.956Z,83.58
2022-11-22T02:03:14.932Z,83.89
2022-11-22T02:04:14.903Z,83.99
2022-11-22T02:05:14.883Z,84.20
2022-11-22T02:06:14.877Z,83.99
2022-11-22T02:07:14.913Z,84.13
2022-11-22T02:08:14.873Z,83.82
2022-11-22T02:09:14.830Z,83.92
2022-11-22T02:10:14.824Z,83.61
2022-11-22T02:11:14.801Z,83.20
2022-11-22T02:12:14.799Z,82.99
2022-11-22T02:13:14.804Z,83.09
2022-11-22T02:14:14.775Z,83.30
2022-11-22T02:15:14.756Z,83.82
2022-11-22T02:16:14.754Z,83.61
2022-11-22T02:17:14.731Z,83.82
2022-11-22T02:18:14.750Z,84.03
2022-11-22T02:19:14.728Z,84.23
2022-11-22T02:20:14.680Z,84.48
2022-11-22T02:21:14.674Z,84.27
2022-11-22T02:22:14.675Z,84.69
2022-11-22T02:23:14.663Z,85.11
2022-11-22T02:24:14.676Z,85.00
2022-11-22T02:25:14.624Z,85.00
2022-11-22T02:26:14.625Z,85.00
2022-11-22T02:27:14.640Z,85.00
2022-11-22T02:28:14.585Z,85.21
2022-11-22T02:29:14.596Z,85.00
2022-11-22T02:30:14.557Z,84.90
2022-11-22T02:31:14.559Z,85.11
2022-11-22T02:32:14.541Z,85.42
2022-11-22T02:33:14.516Z,85.63
2022-11-22T02:34:14.539Z,85.73
2022-11-22T02:35:14.488Z,85.21
2022-11-22T02:36:14.524Z,85.00
2022-11-22T02:37:14.470Z,84.90
2022-11-22T02:38:14.467Z,84.90
2022-11-22T02:39:14.435Z,84.80
2022-11-22T02:40:14.459Z,85.31
2022-11-22T02:41:14.438Z,85.63
2022-11-22T02:42:14.407Z,85.83
2022-11-22T02:43:14.388Z,85.73
2022-11-22T02:44:14.377Z,85.73
2022-11-22T02:45:14.379Z,86.04
2022-11-22T02:46:14.382Z,86.04
2022-11-22T02:47:14.329Z,85.94
2022-11-22T02:48:14.319Z,85.73
2022-11-22T02:49:14.323Z,85.63
2022-11-22T02:50:14.307Z,85.63
2022-11-22T02:51:14.285Z,86.25
2022-11-22T02:52:14.300Z,86.04
2022-11-22T02:53:14.254Z,86.25
2022-11-22T02:54:14.252Z,86.35
2022-11-22T02:55:14.227Z,86.67
2022-11-22T02:56:14.227Z,86.57
2022-11-22T02:57:14.241Z,86.57
2022-11-22T02:58:14.228Z,86.83
2022-11-22T02:59:14.172Z,86.94
2022-11-22T03:00:14.171Z,86.73
2022-11-22T03:01:14.269Z,86.73
2022-11-22T03:02:14.160Z,86.63
2022-11-22T03:03:14.131Z,86.52
2022-11-22T03:04:14.121Z,86.52
2022-11-22T03:05:14.127Z,86.73
2022-11-22T03:06:14.094Z,86.63
2022-11-22T03:07:14.117Z,86.52
2022-11-22T03:08:14.102Z,86.52
2022-11-22T03:09:14.056Z,86.52
2022-11-22T03:10:14.035Z,86.21
2022-11-22T03:11:14.013Z,86.42
2022-11-22T03:12:14.067Z,86.11
2022-11-22T03:13:13.995Z,86.21
2022-11-22T03:14:14.013Z,85.80
2022-11-22T03:15:13.965Z,85.90
2022-11-22T03:16:13.975Z,86.00
2022-11-22T03:17:13.936Z,86.00
2022-11-22T03:18:13.966Z,86.32
2022-11-22T03:19:13.906Z,86.42
2022-11-22T03:20:13.910Z,86.42
2022-11-22T03:21:13.902Z,86.42
2022-11-22T03:22:13.896Z,86.32
2022-11-22T03:23:13.875Z,86.21
2022-11-22T03:24:13.851Z,86.32
2022-11-22T03:25:13.857Z,86.94
2022-11-22T03:26:13.824Z,86.94
2022-11-22T03:27:13.849Z,87.56
2022-11-22T03:28:13.796Z,87.77
2022-11-22T03:29:13.817Z,87.46
2022-11-22T03:30:13.768Z,87.25
2022-11-22T03:31:13.765Z,87.04
2022-11-22T03:32:13.793Z,87.15
2022-11-22T03:33:13.767Z,87.46
2022-11-22T03:34:13.720Z,87.04
2022-11-22T03:35:13.711Z,87.04
2022-11-22T03:36:13.691Z,87.35
2022-11-22T03:37:13.717Z,87.40
2022-11-22T03:38:13.688Z,87.19
2022-11-22T03:39:13.663Z,87.29
2022-11-22T03:40:13.662Z,87.40
2022-11-22T03:41:13.719Z,87.50
2022-11-22T03:42:18.188Z,87.50
2022-11-22T03:43:13.623Z,87.40
2022-11-22T03:44:13.587Z,87.40
2022-11-22T03:45:13.600Z,87.40
2022-11-22T03:46:13.570Z,87.50
2022-11-22T03:47:13.554Z,87.60
2022-11-22T03:48:13.554Z,87.92
2022-11-22T03:49:13.527Z,88.12
2022-11-22T03:50:13.536Z,88.23
2022-11-22T03:51:13.507Z,88.02
2022-11-22T03:52:13.481Z,87.56
2022-11-22T03:53:13.491Z,87.35
2022-11-22T03:54:13.456Z,86.32
2022-11-22T03:55:13.453Z,86.52
2022-11-22T03:56:13.448Z,86.73
2022-11-22T03:57:13.426Z,86.98
2022-11-22T03:58:13.399Z,87.19
2022-11-22T03:59:13.393Z,87.19
2022-11-22T04:00:13.380Z,86.88
2022-11-22T04:01:16.511Z,86.88
2022-11-22T04:02:13.417Z,87.40
2022-11-22T04:03:13.347Z,87.77
2022-11-22T04:04:13.327Z,87.88
2022-11-22T04:05:13.320Z,87.66
2022-11-22T04:06:13.329Z,87.46
2022-11-22T04:07:13.316Z,87.56
2022-11-22T04:08:13.280Z,87.56
2022-11-22T04:09:13.350Z,87.46
2022-11-22T04:10:16.378Z,87.04
2022-11-22T04:11:13.245Z,86.94
2022-11-22T04:12:13.214Z,86.83
2022-11-22T04:13:13.247Z,86.52
2022-11-22T04:14:13.190Z,86.83
2022-11-22T04:15:13.211Z,86.83
2022-11-22T04:16:13.189Z,86.83
2022-11-22T04:17:13.162Z,87.25
2022-11-22T04:18:13.167Z,87.15
2022-11-22T04:19:13.134Z,87.04
2022-11-22T04:20:13.107Z,87.35
2022-11-22T04:21:13.101Z,87.66
2022-11-22T04:22:13.108Z,87.56
2022-11-22T04:23:13.082Z,87.35
2022-11-22T04:24:13.057Z,87.35
2022-11-22T04:25:13.058Z,86.83
2022-11-22T04:26:13.068Z,86.73
2022-11-22T04:27:13.053Z,86.83
2022-11-22T04:28:13.013Z,86.83
2022-11-22T04:29:13.009Z,86.94
2022-11-22T04:30:18.909Z,87.15
2022-11-22T04:31:12.977Z,87.56
2022-11-22T04:32:12.951Z,87.88
2022-11-22T04:33:12.978Z,88.19
2022-11-22T04:34:12.931Z,88.09
2022-11-22T04:35:13.011Z,87.98
2022-11-22T04:36:13.557Z,88.29
2022-11-22T04:37:12.905Z,88.29
2022-11-22T04:38:12.878Z,88.29
2022-11-22T04:39:12.911Z,88.09
2022-11-22T04:40:12.885Z,87.98
2022-11-22T04:41:12.853Z,87.77
2022-11-22T04:42:12.833Z,87.98
2022-11-22T04:43:12.854Z,87.98
2022-11-22T04:44:12.954Z,88.19
2022-11-22T04:45:12.863Z,87.46
2022-11-22T04:46:12.802Z,87.04
2022-11-22T04:47:12.774Z,87.04
2022-11-22T04:48:12.755Z,87.66
2022-11-22T04:49:12.743Z,87.88
2022-11-22T04:50:12.714Z,87.88
2022-11-22T04:51:12.747Z,87.88
2022-11-22T04:52:12.691Z,87.98
2022-11-22T04:53:12.720Z,88.19
2022-11-22T04:54:12.666Z,88.09
2022-11-22T04:55:12.669Z,87.88
2022-11-22T04:56:12.636Z,87.88
2022-11-22T04:57:12.634Z,87.56
2022-11-22T04:58:12.652Z,87.66
2022-11-22T04:59:12.609Z,88.29
2022-11-22T05:00:12.616Z,88.29
2022-11-22T05:01:12.745Z,88.09
2022-11-22T05:02:12.564Z,88.09
2022-11-22T05:03:12.556Z,88.09
2022-11-22T05:04:12.576Z,88.09
2022-11-22T05:05:12.561Z,87.98
2022-11-22T05:06:12.527Z,87.98
2022-11-22T05:07:12.561Z,88.15
2022-11-22T05:08:12.497Z,88.15
2022-11-22T05:09:12.484Z,88.15
2022-11-22T05:10:12.484Z,88.04
2022-11-22T05:11:12.462Z,88.15
2022-11-22T05:12:12.430Z,88.04
2022-11-22T05:13:12.417Z,87.94
2022-11-22T05:14:12.402Z,88.15
2022-11-22T05:15:12.438Z,88.15
2022-11-22T05:16:12.396Z,88.25
2022-11-22T05:17:13.688Z,88.35
2022-11-22T05:18:12.354Z,88.25
2022-11-22T05:19:12.347Z,88.46
2022-11-22T05:20:12.315Z,88.60
2022-11-22T05:21:12.382Z,88.40
2022-11-22T05:22:12.306Z,88.60
2022-11-22T05:23:12.304Z,88.71
2022-11-22T05:24:12.274Z,88.81
2022-11-22T05:25:12.299Z,89.02
2022-11-22T05:26:12.255Z,89.02
2022-11-22T05:27:12.243Z,88.92
2022-11-22T05:28:12.224Z,88.92
2022-11-22T05:29:12.250Z,88.92
2022-11-22T05:30:12.203Z,88.81
2022-11-22T05:31:12.217Z,89.23
2022-11-22T05:32:12.169Z,89.43
2022-11-22T05:33:12.167Z,89.33
2022-11-22T05:34:12.145Z,89.33
2022-11-22T05:35:12.144Z,89.33
2022-11-22T05:36:12.146Z,89.33
2022-11-22T05:37:12.115Z,89.54
2022-11-22T05:38:12.114Z,89.64
2022-11-22T05:39:12.097Z,89.54
2022-11-22T05:40:12.068Z,89.64
2022-11-22T05:41:12.065Z,89.02
2022-11-22T05:42:12.072Z,88.71
2022-11-22T05:43:12.028Z,88.71
2022-11-22T05:44:12.015Z,88.71
2022-11-22T05:45:12.008Z,88.71
2022-11-22T05:46:11.996Z,88.92
2022-11-22T05:47:12.022Z,88.92
2022-11-22T05:48:11.955Z,88.92
2022-11-22T05:49:11.967Z,89.23
2022-11-22T05:50:11.933Z,89.23
2022-11-22T05:51:11.942Z,89.23
2022-11-22T05:52:11.942Z,89.12
2022-11-22T05:53:11.908Z,89.02
2022-11-22T05:54:11.883Z,89.02
2022-11-22T05:55:11.885Z,89.12
2022-11-22T05:56:11.862Z,89.02
2022-11-22T05:57:11.852Z,89.02
2022-11-22T05:58:11.864Z,88.92
2022-11-22T05:59:11.823Z,88.92
2022-11-22T06:00:11.812Z,88.92
2022-11-22T06:01:11.791Z,89.12
2022-11-22T06:02:11.817Z,89.33
2022-11-22T06:03:11.808Z,89.23
2022-11-22T06:04:11.754Z,89.33
2022-11-22T06:05:11.780Z,89.33
2022-11-22T06:06:11.724Z,89.33
2022-11-22T06:07:11.800Z,89.33
2022-11-22T06:08:11.694Z,89.50
2022-11-22T06:09:11.728Z,89.60
2022-11-22T06:10:11.664Z,89.81
2022-11-22T06:11:11.667Z,89.70
2022-11-22T06:12:11.668Z,89.50
2022-11-22T06:13:11.646Z,89.39
2022-11-22T06:14:11.633Z,89.50
2022-11-22T06:15:11.652Z,89.50
2022-11-22T06:16:11.596Z,89.70
2022-11-22T06:17:11.622Z,89.60
2022-11-22T06:18:11.571Z,89.81
2022-11-22T06:19:11.568Z,90.02
2022-11-22T06:20:11.542Z,89.81
2022-11-22T06:21:11.537Z,89.70
2022-11-22T06:22:11.546Z,89.60
2022-11-22T06:23:11.511Z,89.39
2022-11-22T06:24:11.506Z,89.39
2022-11-22T06:25:11.559Z,89.29
2022-11-22T06:26:11.466Z,89.08
2022-11-22T06:27:11.486Z,89.08
2022-11-22T06:28:11.445Z,88.98
2022-11-22T06:29:11.454Z,88.98
2022-11-22T06:30:11.414Z,89.29
2022-11-22T06:31:11.412Z,89.18
2022-11-22T06:32:11.378Z,89.08
2022-11-22T06:33:11.392Z,89.29
2022-11-22T06:34:11.442Z,89.70
2022-11-22T06:35:11.362Z,89.50
2022-11-22T06:36:11.338Z,89.39
2022-11-22T06:37:11.334Z,89.39
2022-11-22T06:38:11.314Z,90.12
2022-11-22T06:39:11.343Z,89.81
2022-11-22T06:40:11.285Z,89.70
2022-11-22T06:41:11.275Z,90.02
2022-11-22T06:42:11.254Z,89.92
2022-11-22T06:43:11.267Z,89.50
2022-11-22T06:44:11.232Z,89.29
2022-11-22T06:45:11.225Z,89.50
2022-11-22T06:46:11.206Z,90.02
2022-11-22T06:47:11.204Z,90.23
2022-11-22T06:48:11.193Z,90.19
2022-11-22T06:49:11.211Z,90.12
2022-11-22T06:50:11.152Z,90.29
2022-11-22T06:51:11.175Z,90.33
2022-11-22T06:52:11.123Z,90.12
2022-11-22T06:53:32.449Z,90.23
2022-11-22T06:54:11.146Z,90.70
2022-11-22T06:55:34.484Z,91.12
2022-11-22T06:56:11.079Z,90.81
2022-11-22T06:57:11.063Z,90.70
2022-11-22T06:58:11.045Z,90.70
2022-11-22T06:59:11.058Z,90.70
2022-11-22T07:00:11.041Z,90.81
2022-11-22T07:01:11.087Z,90.70
2022-11-22T07:02:11.011Z,90.60
2022-11-22T07:03:10.989Z,90.60
2022-11-22T07:04:10.978Z,90.70
2022-11-22T07:05:25.154Z,90.91
2022-11-22T07:06:10.994Z,90.91
2022-11-22T07:07:10.993Z,91.12
2022-11-22T07:08:13.968Z,91.43
2022-11-22T07:09:10.910Z,91.12
2022-11-22T07:10:10.917Z,91.22
2022-11-22T07:11:10.909Z,91.64
2022-11-22T07:12:10.857Z,91.64
2022-11-22T07:13:10.858Z,91.43
2022-11-22T07:14:10.841Z,91.43
2022-11-22T07:15:10.870Z,91.43
2022-11-22T07:16:10.810Z,91.02
2022-11-22T07:17:10.828Z,91.02
2022-11-22T07:18:10.785Z,91.22
2022-11-22T07:19:10.786Z,91.12
2022-11-22T07:20:10.784Z,91.12
2022-11-22T07:21:13.196Z,91.02
2022-11-22T07:22:10.733Z,91.12
2022-11-22T07:23:10.724Z,91.02
2022-11-22T07:24:10.723Z,90.97
2022-11-22T07:25:10.695Z,91.60
2022-11-22T07:26:10.700Z,91.70
2022-11-22T07:27:10.701Z,91.91
2022-11-22T07:28:10.671Z,91.80
2022-11-22T07:29:10.650Z,91.49
2022-11-22T07:30:10.661Z,91.70
2022-11-22T07:31:10.613Z,92.05
2022-11-22T07:32:10.640Z,92.05
2022-11-22T07:33:10.583Z,92.26
2022-11-22T07:34:10.581Z,92.16
2022-11-22T07:35:10.553Z,92.16
2022-11-22T07:36:10.570Z,92.47
2022-11-22T07:37:10.557Z,92.88
2022-11-22T07:38:10.526Z,92.99
2022-11-22T07:39:10.507Z,92.78
2022-11-22T07:40:10.507Z,92.99
2022-11-22T07:41:10.504Z,92.88
2022-11-22T07:42:10.476Z,92.99
2022-11-22T07:43:10.462Z,92.99
2022-11-22T07:44:10.443Z,93.10
2022-11-22T07:45:10.423Z,93.20
2022-11-22T07:46:10.462Z,93.20
2022-11-22T07:47:10.396Z,93.41
2022-11-22T07:48:10.403Z,93.57
2022-11-22T07:49:10.371Z,93.88
2022-11-22T07:50:10.376Z,93.88
2022-11-22T07:51:10.425Z,93.68
2022-11-22T07:52:10.379Z,93.47
2022-11-22T07:53:10.326Z,93.78
2022-11-22T07:54:10.344Z,93.78
2022-11-22T07:55:14.113Z,93.78
2022-11-22T07:56:10.295Z,93.78
2022-11-22T07:57:10.304Z,93.68
2022-11-22T07:58:10.264Z,93.47
2022-11-22T07:59:10.252Z,93.37
2022-11-22T08:00:10.237Z,93.57
2022-11-22T08:01:10.371Z,93.88
2022-11-22T08:02:10.318Z,93.88
2022-11-22T08:03:13.134Z,93.88
2022-11-22T08:04:10.194Z,94.20
2022-11-22T08:05:10.164Z,94.30
2022-11-22T08:06:10.206Z,94.40
2022-11-22T08:07:10.202Z,94.30
2022-11-22T08:08:10.140Z,94.30
2022-11-22T08:09:10.109Z,94.20
2022-11-22T08:10:10.114Z,93.99
2022-11-22T08:11:10.114Z,93.88
2022-11-22T08:12:10.087Z,93.78
2022-11-22T08:13:10.059Z,93.68
2022-11-22T08:14:10.060Z,93.88
2022-11-22T08:15:10.042Z,93.88
2022-11-22T08:16:10.063Z,93.88
2022-11-22T08:17:10.018Z,93.84
2022-11-22T08:18:10.041Z,93.74
2022-11-22T08:19:09.978Z,93.63
2022-11-22T08:20:09.979Z,93.63
2022-11-22T08:21:09.964Z,93.53
2022-11-22T08:22:10.011Z,93.84
2022-11-22T08:23:09.932Z,93.78
2022-11-22T08:24:09.970Z,93.63
2022-11-22T08:25:09.911Z,93.57
2022-11-22T08:26:09.904Z,93.57
2022-11-22T08:27:09.883Z,93.63
2022-11-22T08:28:09.872Z,93.74
2022-11-22T08:29:13.937Z,93.84
2022-11-22T08:30:09.846Z,93.74
2022-11-22T08:31:09.826Z,93.99
2022-11-22T08:32:09.823Z,94.40
2022-11-22T08:33:09.825Z,94.40
2022-11-22T08:34:09.804Z,94.40
2022-11-22T08:35:09.770Z,94.51
2022-11-22T08:36:09.795Z,94.71
2022-11-22T08:37:09.737Z,94.92
2022-11-22T08:38:09.734Z,95.03
2022-11-22T08:39:09.710Z,95.03
2022-11-22T08:40:09.741Z,94.92
2022-11-22T08:41:09.711Z,94.92
2022-11-22T08:42:09.681Z,94.92
2022-11-22T08:43:09.663Z,94.88
2022-11-22T08:44:09.670Z,95.09
2022-11-22T08:45:09.669Z,95.09
2022-11-22T08:46:09.654Z,95.09
2022-11-22T08:47:09.611Z,95.09
2022-11-22T08:48:09.615Z,95.19
2022-11-22T08:49:09.583Z,95.09
2022-11-22T08:50:09.593Z,94.98
2022-11-22T08:51:09.591Z,94.88
2022-11-22T08:52:09.559Z,94.78
2022-11-22T08:53:09.553Z,94.88
2022-11-22T08:54:09.575Z,95.09
2022-11-22T08:55:09.499Z,95.19
2022-11-22T08:56:09.541Z,95.40
2022-11-22T08:57:09.512Z,95.40
2022-11-22T08:58:09.518Z,95.40
2022-11-22T08:59:09.487Z,95.40
2022-11-22T09:00:09.450Z,95.40
2022-11-22T09:01:09.494Z,95.50
2022-11-22T09:02:09.466Z,95.40
2022-11-22T09:03:09.404Z,95.19
2022-11-22T09:04:09.403Z,95.09
2022-11-22T09:05:09.371Z,95.19
2022-11-22T09:08:24.766Z,95.09
2022-11-22T09:09:35.894Z,95.09
2022-11-22T09:10:09.324Z,95.09
2022-11-22T09:11:09.326Z,95.29
2022-11-22T09:12:09.323Z,95.50
2022-11-22T09:13:09.273Z,95.61
2022-11-22T09:14:09.273Z,95.61
2022-11-22T09:15:09.248Z,95.71
2022-11-22T09:16:09.264Z,95.71
2022-11-22T09:17:13.177Z,95.71
2022-11-22T09:18:09.222Z,95.61
2022-11-22T09:19:09.217Z,95.71
2022-11-22T09:20:09.188Z,95.92
2022-11-22T09:21:09.160Z,96.23
2022-11-22T09:22:09.185Z,96.33
2022-11-22T09:23:09.157Z,96.23
2022-11-22T09:24:09.163Z,96.33
2022-11-22T09:25:09.113Z,96.33
2022-11-22T09:26:09.121Z,96.23
2022-11-22T09:27:09.085Z,96.12
2022-11-22T09:28:09.114Z,96.12
2022-11-22T09:29:09.095Z,96.02
2022-11-22T09:30:09.063Z,95.81
2022-11-22T09:31:09.039Z,95.61
2022-11-22T09:32:09.038Z,95.61
2022-11-22T09:33:09.041Z,95.50
2022-11-22T09:34:08.999Z,95.61
2022-11-22T09:35:08.984Z,95.50
2022-11-22T09:36:08.977Z,95.40
2022-11-22T09:37:08.978Z,95.29
2022-11-22T09:38:08.957Z,95.40
2022-11-22T09:39:08.977Z,95.61
2022-11-22T09:40:08.953Z,95.61
2022-11-22T09:41:08.925Z,95.40
2022-11-22T09:42:08.934Z,95.40
2022-11-22T09:43:08.874Z,95.29
2022-11-22T09:44:08.873Z,95.29
2022-11-22T09:45:08.859Z,95.29
2022-11-22T09:46:08.846Z,95.19
2022-11-22T09:47:08.854Z,95.25
2022-11-22T09:48:10.122Z,95.25
2022-11-22T09:49:08.809Z,95.04
2022-11-22T09:50:08.800Z,95.04
2022-11-22T09:51:08.774Z,95.15
2022-11-22T09:52:08.786Z,95.15
2022-11-22T09:53:08.746Z,95.25
2022-11-22T09:54:08.749Z,95.46
2022-11-22T09:55:08.720Z,95.46
2022-11-22T09:56:08.715Z,95.67
2022-11-22T09:57:08.720Z,95.77
2022-11-22T09:58:08.716Z,95.67
2022-11-22T09:59:08.682Z,95.67
2022-11-22T10:00:08.672Z,95.98
2022-11-22T10:01:08.720Z,96.08
2022-11-22T10:02:18.090Z,96.08
2022-11-22T10:03:08.617Z,95.77
2022-11-22T10:04:08.618Z,95.56
2022-11-22T10:05:08.607Z,95.77
2022-11-22T10:06:08.605Z,95.77
2022-11-22T10:07:08.602Z,95.67
2022-11-22T10:08:08.546Z,95.87
2022-11-22T10:09:08.537Z,95.98
2022-11-22T10:10:08.530Z,96.08
2022-11-22T10:11:08.511Z,95.98
2022-11-22T10:12:08.535Z,95.87
2022-11-22T10:13:08.472Z,95.77
2022-11-22T10:14:08.506Z,95.87
2022-11-22T10:15:08.453Z,95.98
2022-11-22T10:16:08.444Z,95.98
2022-11-22T10:17:08.465Z,95.77
2022-11-22T10:18:08.473Z,95.56
2022-11-22T10:19:08.411Z,95.36
2022-11-22T10:20:08.420Z,95.56
2022-11-22T10:21:08.425Z,95.46
2022-11-22T10:22:08.373Z,95.46
2022-11-22T10:23:08.347Z,95.56
2022-11-22T10:24:08.338Z,95.46
2022-11-22T10:25:08.346Z,95.25
2022-11-22T10:26:08.354Z,95.15
2022-11-22T10:27:08.299Z,95.04
2022-11-22T10:28:08.304Z,95.04
2022-11-22T10:29:08.272Z,95.15
2022-11-22T10:30:08.266Z,95.36
2022-11-22T10:31:08.276Z,95.36
2022-11-22T10:32:08.254Z,95.67
2022-11-22T10:33:08.217Z,95.56
2022-11-22T10:34:08.207Z,95.67
2022-11-22T10:35:08.229Z,95.77
2022-11-22T10:36:08.199Z,95.77
2022-11-22T10:37:08.168Z,95.67
2022-11-22T10:38:08.167Z,95.51
2022-11-22T10:39:08.170Z,95.36
2022-11-22T10:40:08.136Z,95.10
2022-11-22T10:41:08.118Z,95.04
2022-11-22T10:42:08.158Z,95.20
2022-11-22T10:43:08.088Z,95.10
2022-11-22T10:44:08.104Z,95.10
2022-11-22T10:45:08.164Z,95.00
2022-11-22T10:46:08.055Z,95.00
2022-11-22T10:47:08.046Z,94.89
2022-11-22T10:48:08.081Z,94.58
2022-11-22T10:49:08.008Z,94.48
2022-11-22T10:50:08.009Z,94.32
2022-11-22T10:51:07.996Z,94.32
2022-11-22T10:52:07.975Z,94.21
2022-11-22T10:53:07.985Z,94.11
2022-11-22T10:54:07.959Z,94.11
2022-11-22T10:55:07.929Z,94.21
2022-11-22T10:56:07.927Z,94.42
2022-11-22T10:57:07.907Z,94.42
2022-11-22T10:58:07.941Z,94.21
2022-11-22T10:59:07.900Z,94.21
2022-11-22T11:00:07.873Z,94.11
2022-11-22T11:01:07.971Z,94.21
2022-11-22T11:02:07.845Z,94.32
2022-11-22T11:03:07.816Z,94.11
2022-11-22T11:04:07.844Z,94.01
2022-11-22T11:05:07.802Z,94.11
2022-11-22T11:06:24.094Z,93.90
2022-11-22T11:07:12.558Z,93.70
2022-11-22T11:08:35.414Z,93.49
2022-11-22T11:10:12.984Z,93.18
2022-11-22T11:11:07.779Z,92.97
2022-11-22T11:12:07.715Z,92.86
2022-11-22T11:13:07.696Z,92.07
2022-11-22T11:14:07.731Z,91.55
2022-11-22T11:15:07.666Z,91.55
2022-11-22T11:16:07.656Z,91.86
2022-11-22T11:17:07.666Z,91.76
2022-11-22T11:18:07.626Z,91.66
2022-11-22T11:19:07.611Z,91.76
2022-11-22T11:20:07.639Z,91.80
2022-11-22T11:21:07.585Z,92.22
2022-11-22T11:22:07.582Z,92.43
2022-11-22T11:23:14.805Z,92.22
2022-11-22T11:24:07.584Z,92.43
2022-11-22T11:25:07.537Z,92.53
2022-11-22T11:26:07.528Z,92.74
2022-11-22T11:27:07.504Z,92.53
2022-11-22T11:28:07.535Z,92.84
2022-11-22T11:29:07.527Z,92.84
2022-11-22T11:30:07.482Z,92.94
2022-11-22T11:31:07.454Z,93.26
2022-11-22T11:32:07.450Z,93.26
2022-11-22T11:33:07.454Z,93.16
2022-11-22T11:34:07.426Z,92.94
2022-11-22T11:35:07.400Z,92.84
2022-11-22T11:36:07.413Z,92.63
2022-11-22T11:37:07.383Z,92.63
2022-11-22T11:38:07.391Z,92.63
2022-11-22T11:39:07.360Z,92.74
2022-11-22T11:40:07.340Z,92.74
2022-11-22T11:41:07.344Z,92.43
2022-11-22T11:42:07.352Z,92.32
2022-11-22T11:43:07.307Z,92.63
2022-11-22T11:44:07.307Z,92.43
2022-11-22T11:45:07.387Z,92.11
2022-11-22T11:46:07.295Z,92.11
2022-11-22T11:47:07.250Z,92.32
2022-11-22T11:48:07.235Z,92.43
2022-11-22T11:49:07.223Z,92.36
2022-11-22T11:50:07.211Z,92.36
2022-11-22T11:51:07.213Z,92.57
2022-11-22T11:52:07.202Z,92.57
2022-11-22T11:53:07.179Z,92.78
2022-11-22T11:54:07.156Z,92.78
2022-11-22T11:55:07.144Z,92.78
2022-11-22T11:56:07.151Z,92.99
2022-11-22T11:57:07.134Z,93.10
2022-11-22T11:58:07.099Z,93.41
2022-11-22T11:59:07.102Z,93.51
2022-11-22T12:00:07.082Z,93.30
2022-11-22T12:01:07.099Z,93.30
2022-11-22T12:02:07.085Z,93.41
2022-11-22T12:03:07.065Z,93.30
2022-11-22T12:04:07.018Z,93.30
2022-11-22T12:05:07.021Z,93.41
2022-11-22T12:06:06.992Z,93.41
2022-11-22T12:07:07.071Z,93.41
2022-11-22T12:08:06.991Z,93.51
2022-11-22T12:09:06.969Z,93.41
2022-11-22T12:10:06.942Z,93.51
2022-11-22T12:11:06.944Z,93.20
2022-11-22T12:12:06.918Z,93.14
2022-11-22T12:13:06.939Z,93.24
2022-11-22T12:14:22.228Z,93.35
2022-11-22T12:15:11.632Z,93.66
2022-11-22T12:16:06.873Z,93.76
2022-11-22T12:17:06.885Z,93.76
2022-11-22T12:18:06.840Z,93.76
2022-11-22T12:19:06.840Z,93.76
2022-11-22T12:20:06.843Z,93.66
2022-11-22T12:21:06.825Z,93.55
2022-11-22T12:22:06.787Z,93.76
2022-11-22T12:23:06.802Z,93.66
2022-11-22T12:24:40.977Z,93.24
2022-11-22T12:25:31.165Z,93.55
2022-11-22T12:26:06.736Z,93.35
2022-11-22T12:27:06.739Z,93.55
2022-11-22T12:28:06.711Z,93.76
2022-11-22T12:29:06.724Z,93.55
2022-11-22T12:30:06.677Z,93.35
2022-11-22T12:31:11.987Z,93.03
2022-11-22T12:32:06.665Z,92.82
2022-11-22T12:33:06.649Z,92.82
2022-11-22T12:34:06.633Z,92.93
2022-11-22T12:35:06.636Z,93.14
2022-11-22T12:36:06.628Z,93.51
2022-11-22T12:37:06.602Z,93.72
2022-11-22T12:38:06.569Z,93.93
2022-11-22T12:39:06.565Z,94.03
2022-11-22T12:40:06.549Z,93.62
2022-11-22T12:41:06.581Z,93.62
2022-11-22T12:42:06.532Z,93.62
2022-11-22T12:43:06.524Z,94.03
2022-11-22T12:44:06.503Z,94.03
2022-11-22T12:45:06.492Z,93.93
2022-11-22T12:46:06.467Z,94.24
2022-11-22T12:47:06.503Z,94.13
2022-11-22T12:48:06.450Z,93.93
2022-11-22T12:49:06.470Z,93.93
2022-11-22T12:50:06.417Z,93.82
2022-11-22T12:51:06.434Z,93.82
2022-11-22T12:52:06.413Z,93.72
2022-11-22T12:53:06.422Z,93.51
2022-11-22T12:54:06.406Z,93.55
2022-11-22T12:55:06.381Z,93.55